Haja K — 3FVK3 — position and weather

sailwx.info

Track history (hours):
 
Tides and Currents Weather Stations Pressure Air Temp Water Temp Dewpoint Dewpoint Depression Visibility Wind Speed Wind Dir Waves Ship Positions

Haja K

Last reported at 2014-Aug-20 13:13 UTC. Time now 2014-Aug-20 14:42 UTC.
Position N 40°43' E 029°29'.

Length 131 m.

Type: Cargo ship. MMSI: 357882000.

Date/timePositionNaut miles runAvg speedWind from/ knotsBaromVisibWave heightAir tempDewpointWater temp
2014-Aug-20 13:13N 40°43' E 029°29'0 0.0
2014-Aug-20 12:31N 40°43' E 029°29'0 0.0
2014-Aug-20 10:33N 40°43' E 029°29'0 0.0
2014-Aug-20 09:33N 40°43' E 029°29'0 0.0
2014-Aug-20 08:32N 40°43' E 029°29'0 0.0
2014-Aug-20 07:32N 40°43' E 029°29'0 0.0
2014-Aug-20 06:32N 40°43' E 029°29'0 0.0
2014-Aug-20 05:19N 40°43' E 029°29'0 0.0
2014-Aug-19 11:15N 40°43' E 029°29'0 0.0
2014-Aug-19 10:20N 40°43' E 029°29'0 0.0
2014-Aug-19 09:32N 40°43' E 029°29'3 3.5
2014-Aug-19 08:33N 40°44' E 029°24'3 2.6
2014-Aug-19 07:33N 40°42' E 029°21'1 0.8
2014-Aug-19 06:33N 40°41' E 029°21'0 0.1
2014-Aug-19 05:33N 40°42' E 029°21'0 0.0
2014-Aug-19 04:33N 40°42' E 029°21'0 0.1
2014-Aug-19 03:34N 40°42' E 029°21'0 0.1
2014-Aug-19 02:32N 40°42' E 029°21'0 0.0
2014-Aug-19 01:32N 40°41' E 029°21'0 0.0
2014-Aug-19 00:33N 40°41' E 029°21'0 0.0
2014-Aug-18 23:33N 40°41' E 029°21'0 0.0
2014-Aug-18 22:31N 40°41' E 029°21'0 0.0
2014-Aug-18 21:31N 40°42' E 029°21'0 0.0
2014-Aug-18 20:32N 40°42' E 029°21'0 0.0
2014-Aug-18 19:32N 40°42' E 029°21'0 0.0
2014-Aug-18 18:33N 40°42' E 029°21'0 0.0
2014-Aug-18 17:33N 40°42' E 029°21'0 0.0
2014-Aug-18 16:33N 40°42' E 029°21'0 0.1
2014-Aug-18 15:31N 40°41' E 029°21'0 0.1
2014-Aug-18 14:33N 40°42' E 029°21'0 0.0
2014-Aug-18 13:31N 40°41' E 029°21'0 0.0
2014-Aug-18 12:34N 40°41' E 029°21'0 0.0
2014-Aug-18 11:33N 40°41' E 029°21'0 0.0
2014-Aug-18 10:33N 40°41' E 029°21'0 0.0
2014-Aug-18 09:33N 40°41' E 029°21'0 0.0
2014-Aug-18 08:31N 40°41' E 029°21'3 2.9
2014-Aug-18 07:34N 40°42' E 029°17'8 8.2
2014-Aug-18 06:33N 40°45' E 029°07'8 7.5
2014-Aug-18 05:33N 40°49' E 028°59'8 8.1
2014-Aug-18 04:32N 40°57' E 028°58'  
2014-Aug-15 20:32N 44°08' E 028°45'0 0.0
2014-Aug-15 19:27N 44°08' E 028°45'0 0.0
2014-Aug-15 18:33N 44°08' E 028°45'0 0.0
2014-Aug-15 17:33N 44°08' E 028°45'  
2014-Aug-13 09:07N 44°08' E 028°45'  
Track history (hours):
 
Tides and Currents Weather Stations Pressure Air Temp Water Temp Dewpoint Dewpoint Depression Visibility Wind Speed Wind Dir Waves Ship Positions

Haja K

Last reported at 2014-Aug-20 13:13 UTC. Time now 2014-Aug-20 14:42 UTC.
Position N 40°43' E 029°29'.

Length 131 m.

Type: Cargo ship. MMSI: 357882000.

Date/timePositionNaut miles runAvg speedWind from/ knotsBaromVisibWave heightAir tempDewpointWater temp
2014-Aug-20 13:13N 40°43' E 029°29'0 0.0
2014-Aug-20 12:31N 40°43' E 029°29'0 0.0
2014-Aug-20 10:33N 40°43' E 029°29'0 0.0
2014-Aug-20 09:33N 40°43' E 029°29'0 0.0
2014-Aug-20 08:32N 40°43' E 029°29'0 0.0
2014-Aug-20 07:32N 40°43' E 029°29'0 0.0
2014-Aug-20 06:32N 40°43' E 029°29'0 0.0
2014-Aug-20 05:19N 40°43' E 029°29'0 0.0
2014-Aug-19 11:15N 40°43' E 029°29'0 0.0
2014-Aug-19 10:20N 40°43' E 029°29'0 0.0
2014-Aug-19 09:32N 40°43' E 029°29'3 3.5
2014-Aug-19 08:33N 40°44' E 029°24'3 2.6
2014-Aug-19 07:33N 40°42' E 029°21'1 0.8
2014-Aug-19 06:33N 40°41' E 029°21'0 0.1
2014-Aug-19 05:33N 40°42' E 029°21'0 0.0
2014-Aug-19 04:33N 40°42' E 029°21'0 0.1
2014-Aug-19 03:34N 40°42' E 029°21'0 0.1
2014-Aug-19 02:32N 40°42' E 029°21'0 0.0
2014-Aug-19 01:32N 40°41' E 029°21'0 0.0
2014-Aug-19 00:33N 40°41' E 029°21'0 0.0
2014-Aug-18 23:33N 40°41' E 029°21'0 0.0
2014-Aug-18 22:31N 40°41' E 029°21'0 0.0
2014-Aug-18 21:31N 40°42' E 029°21'0 0.0
2014-Aug-18 20:32N 40°42' E 029°21'0 0.0
2014-Aug-18 19:32N 40°42' E 029°21'0 0.0
2014-Aug-18 18:33N 40°42' E 029°21'0 0.0
2014-Aug-18 17:33N 40°42' E 029°21'0 0.0
2014-Aug-18 16:33N 40°42' E 029°21'0 0.1
2014-Aug-18 15:31N 40°41' E 029°21'0 0.1
2014-Aug-18 14:33N 40°42' E 029°21'0 0.0
2014-Aug-18 13:31N 40°41' E 029°21'0 0.0
2014-Aug-18 12:34N 40°41' E 029°21'0 0.0
2014-Aug-18 11:33N 40°41' E 029°21'0 0.0
2014-Aug-18 10:33N 40°41' E 029°21'0 0.0
2014-Aug-18 09:33N 40°41' E 029°21'0 0.0
2014-Aug-18 08:31N 40°41' E 029°21'3 2.9
2014-Aug-18 07:34N 40°42' E 029°17'8 8.2
2014-Aug-18 06:33N 40°45' E 029°07'8 7.5
2014-Aug-18 05:33N 40°49' E 028°59'8 8.1
2014-Aug-18 04:32N 40°57' E 028°58'  
2014-Aug-15 20:32N 44°08' E 028°45'0 0.0
2014-Aug-15 19:27N 44°08' E 028°45'0 0.0
2014-Aug-15 18:33N 44°08' E 028°45'0 0.0
2014-Aug-15 17:33N 44°08' E 028°45'  
2014-Aug-13 09:07N 44°08' E 028°45'  

Dump ship's entire track history